sensor_id;sensor_type;location;lat;lon;timestamp;temperature;humidity
13591;DHT22;6866;50.778;7.206;2023-04-07T00:01:19;9.20;99.90
13591;DHT22;6866;50.778;7.206;2023-04-07T00:03:46;9.30;99.90
13591;DHT22;6866;50.778;7.206;2023-04-07T00:06:11;9.10;99.90
13591;DHT22;6866;50.778;7.206;2023-04-07T00:08:38;9.20;99.90
13591;DHT22;6866;50.778;7.206;2023-04-07T00:11:04;9.10;99.90
13591;DHT22;6866;50.778;7.206;2023-04-07T00:13:30;9.20;99.90
13591;DHT22;6866;50.778;7.206;2023-04-07T00:15:55;9.20;99.90
13591;DHT22;6866;50.778;7.206;2023-04-07T00:18:21;9.20;99.90
13591;DHT22;6866;50.778;7.206;2023-04-07T00:20:46;9.20;99.90
13591;DHT22;6866;50.778;7.206;2023-04-07T00:23:12;9.20;99.90
13591;DHT22;6866;50.778;7.206;2023-04-07T00:25:37;9.20;99.90
13591;DHT22;6866;50.778;7.206;2023-04-07T00:28:03;9.30;99.90
13591;DHT22;6866;50.778;7.206;2023-04-07T00:30:29;9.20;99.90
13591;DHT22;6866;50.778;7.206;2023-04-07T00:32:55;9.10;99.90
13591;DHT22;6866;50.778;7.206;2023-04-07T00:35:21;9.20;99.90
13591;DHT22;6866;50.778;7.206;2023-04-07T00:37:46;9.30;99.90
13591;DHT22;6866;50.778;7.206;2023-04-07T00:40:12;9.30;99.90
13591;DHT22;6866;50.778;7.206;2023-04-07T00:42:37;9.20;99.90
13591;DHT22;6866;50.778;7.206;2023-04-07T00:45:03;9.20;99.90
13591;DHT22;6866;50.778;7.206;2023-04-07T00:47:29;9.20;99.90
13591;DHT22;6866;50.778;7.206;2023-04-07T00:49:55;9.30;99.90
13591;DHT22;6866;50.778;7.206;2023-04-07T00:52:21;9.30;99.90
13591;DHT22;6866;50.778;7.206;2023-04-07T00:54:53;9.20;99.90
13591;DHT22;6866;50.778;7.206;2023-04-07T00:57:19;9.30;99.90
13591;DHT22;6866;50.778;7.206;2023-04-07T00:59:44;9.30;99.90
13591;DHT22;6866;50.778;7.206;2023-04-07T01:07:43;9.30;99.90
13591;DHT22;6866;50.778;7.206;2023-04-07T01:10:22;9.30;99.90
13591;DHT22;6866;50.778;7.206;2023-04-07T01:13:22;9.40;99.90
13591;DHT22;6866;50.778;7.206;2023-04-07T01:15:50;9.30;99.90
13591;DHT22;6866;50.778;7.206;2023-04-07T01:18:21;9.30;99.90
13591;DHT22;6866;50.778;7.206;2023-04-07T01:20:49;9.30;99.90
13591;DHT22;6866;50.778;7.206;2023-04-07T01:26:27;9.30;99.90
13591;DHT22;6866;50.778;7.206;2023-04-07T01:29:29;9.20;99.90
13591;DHT22;6866;50.778;7.206;2023-04-07T01:31:59;9.10;99.90
13591;DHT22;6866;50.778;7.206;2023-04-07T01:34:29;9.30;99.90
13591;DHT22;6866;50.778;7.206;2023-04-07T01:36:56;9.30;99.90
13591;DHT22;6866;50.778;7.206;2023-04-07T01:39:23;9.30;99.90
13591;DHT22;6866;50.778;7.206;2023-04-07T01:41:51;9.30;99.90
13591;DHT22;6866;50.778;7.206;2023-04-07T01:44:18;9.20;99.90
13591;DHT22;6866;50.778;7.206;2023-04-07T01:46:44;9.10;99.90
13591;DHT22;6866;50.778;7.206;2023-04-07T01:49:11;9.20;99.90
13591;DHT22;6866;50.778;7.206;2023-04-07T01:51:39;9.30;99.90
13591;DHT22;6866;50.778;7.206;2023-04-07T01:54:05;9.40;99.90
13591;DHT22;6866;50.778;7.206;2023-04-07T01:56:31;9.40;99.90
13591;DHT22;6866;50.778;7.206;2023-04-07T01:58:56;9.40;99.90
13591;DHT22;6866;50.778;7.206;2023-04-07T02:01:22;9.30;99.90
13591;DHT22;6866;50.778;7.206;2023-04-07T02:04:01;9.30;99.90
13591;DHT22;6866;50.778;7.206;2023-04-07T02:06:33;9.30;99.90
13591;DHT22;6866;50.778;7.206;2023-04-07T02:09:03;9.40;99.90
13591;DHT22;6866;50.778;7.206;2023-04-07T02:11:32;9.50;99.90
13591;DHT22;6866;50.778;7.206;2023-04-07T02:14:00;9.50;99.90
13591;DHT22;6866;50.778;7.206;2023-04-07T02:16:29;9.50;99.90
13591;DHT22;6866;50.778;7.206;2023-04-07T02:18:56;9.50;99.90
13591;DHT22;6866;50.778;7.206;2023-04-07T02:21:22;9.50;99.90
13591;DHT22;6866;50.778;7.206;2023-04-07T02:23:48;9.50;99.90
13591;DHT22;6866;50.778;7.206;2023-04-07T02:26:14;9.50;99.90
13591;DHT22;6866;50.778;7.206;2023-04-07T02:28:39;9.50;99.90
13591;DHT22;6866;50.778;7.206;2023-04-07T02:31:05;9.50;99.90
13591;DHT22;6866;50.778;7.206;2023-04-07T02:33:30;9.40;99.90
13591;DHT22;6866;50.778;7.206;2023-04-07T02:35:56;9.30;99.90
13591;DHT22;6866;50.778;7.206;2023-04-07T02:38:21;9.50;99.90
13591;DHT22;6866;50.778;7.206;2023-04-07T02:40:47;9.50;99.90
13591;DHT22;6866;50.778;7.206;2023-04-07T02:43:13;9.60;99.90
13591;DHT22;6866;50.778;7.206;2023-04-07T02:45:38;9.60;99.90
13591;DHT22;6866;50.778;7.206;2023-04-07T02:48:04;9.60;99.90
13591;DHT22;6866;50.778;7.206;2023-04-07T02:50:30;9.70;99.90
13591;DHT22;6866;50.778;7.206;2023-04-07T02:52:55;9.70;99.90
13591;DHT22;6866;50.778;7.206;2023-04-07T02:55:21;9.70;99.90
13591;DHT22;6866;50.778;7.206;2023-04-07T02:57:46;9.70;99.90
13591;DHT22;6866;50.778;7.206;2023-04-07T03:00:13;9.70;99.90
13591;DHT22;6866;50.778;7.206;2023-04-07T03:02:38;9.70;99.90
13591;DHT22;6866;50.778;7.206;2023-04-07T03:05:04;9.70;99.90
13591;DHT22;6866;50.778;7.206;2023-04-07T03:07:30;9.70;99.90
13591;DHT22;6866;50.778;7.206;2023-04-07T03:09:56;9.70;99.90
13591;DHT22;6866;50.778;7.206;2023-04-07T03:12:22;9.70;99.90
13591;DHT22;6866;50.778;7.206;2023-04-07T03:14:47;9.70;99.90
13591;DHT22;6866;50.778;7.206;2023-04-07T03:17:13;9.80;99.90
13591;DHT22;6866;50.778;7.206;2023-04-07T03:19:38;9.80;99.90
13591;DHT22;6866;50.778;7.206;2023-04-07T03:22:04;9.70;99.90
13591;DHT22;6866;50.778;7.206;2023-04-07T03:24:30;9.80;99.90
13591;DHT22;6866;50.778;7.206;2023-04-07T03:26:55;9.80;99.90
13591;DHT22;6866;50.778;7.206;2023-04-07T03:29:21;9.70;99.90
13591;DHT22;6866;50.778;7.206;2023-04-07T03:31:47;9.70;99.90
13591;DHT22;6866;50.778;7.206;2023-04-07T03:34:13;9.60;99.90
13591;DHT22;6866;50.778;7.206;2023-04-07T03:36:38;9.70;99.90
13591;DHT22;6866;50.778;7.206;2023-04-07T03:39:04;9.80;99.90
13591;DHT22;6866;50.778;7.206;2023-04-07T03:41:30;9.80;99.90
13591;DHT22;6866;50.778;7.206;2023-04-07T03:43:56;9.80;99.90
13591;DHT22;6866;50.778;7.206;2023-04-07T03:46:22;9.80;99.90
13591;DHT22;6866;50.778;7.206;2023-04-07T03:48:48;9.90;99.90
13591;DHT22;6866;50.778;7.206;2023-04-07T03:51:13;9.80;99.90
13591;DHT22;6866;50.778;7.206;2023-04-07T03:53:39;9.80;99.90
13591;DHT22;6866;50.778;7.206;2023-04-07T03:56:05;9.80;99.90
13591;DHT22;6866;50.778;7.206;2023-04-07T03:58:30;9.80;99.90
13591;DHT22;6866;50.778;7.206;2023-04-07T04:00:56;9.70;99.90
13591;DHT22;6866;50.778;7.206;2023-04-07T04:03:21;9.70;99.90
13591;DHT22;6866;50.778;7.206;2023-04-07T04:05:47;9.70;99.90
13591;DHT22;6866;50.778;7.206;2023-04-07T04:08:12;9.80;99.90
13591;DHT22;6866;50.778;7.206;2023-04-07T04:10:38;9.90;99.90
13591;DHT22;6866;50.778;7.206;2023-04-07T04:13:04;9.80;99.90
13591;DHT22;6866;50.778;7.206;2023-04-07T04:15:32;9.80;99.90
13591;DHT22;6866;50.778;7.206;2023-04-07T04:17:57;9.80;99.90
13591;DHT22;6866;50.778;7.206;2023-04-07T04:20:23;9.80;99.90
13591;DHT22;6866;50.778;7.206;2023-04-07T04:22:49;9.70;99.90
13591;DHT22;6866;50.778;7.206;2023-04-07T04:25:16;9.70;99.90
13591;DHT22;6866;50.778;7.206;2023-04-07T04:27:41;9.70;99.90
13591;DHT22;6866;50.778;7.206;2023-04-07T04:30:07;9.70;99.90
13591;DHT22;6866;50.778;7.206;2023-04-07T04:32:33;9.70;99.90
13591;DHT22;6866;50.778;7.206;2023-04-07T04:34:59;9.70;99.90
13591;DHT22;6866;50.778;7.206;2023-04-07T04:37:24;9.60;99.90
13591;DHT22;6866;50.778;7.206;2023-04-07T04:39:50;9.60;99.90
13591;DHT22;6866;50.778;7.206;2023-04-07T04:42:16;9.60;99.90
13591;DHT22;6866;50.778;7.206;2023-04-07T04:44:41;9.60;99.90
13591;DHT22;6866;50.778;7.206;2023-04-07T04:47:07;9.60;99.90
13591;DHT22;6866;50.778;7.206;2023-04-07T04:49:33;9.60;99.90
13591;DHT22;6866;50.778;7.206;2023-04-07T04:51:58;9.60;99.90
13591;DHT22;6866;50.778;7.206;2023-04-07T04:54:24;9.60;99.90
13591;DHT22;6866;50.778;7.206;2023-04-07T04:56:49;9.70;99.90
13591;DHT22;6866;50.778;7.206;2023-04-07T04:59:15;9.70;99.90
13591;DHT22;6866;50.778;7.206;2023-04-07T05:01:41;9.60;99.90
13591;DHT22;6866;50.778;7.206;2023-04-07T05:04:06;9.60;99.90
13591;DHT22;6866;50.778;7.206;2023-04-07T05:06:33;9.60;99.90
13591;DHT22;6866;50.778;7.206;2023-04-07T05:09:00;9.60;99.90
13591;DHT22;6866;50.778;7.206;2023-04-07T05:11:25;9.60;99.90
13591;DHT22;6866;50.778;7.206;2023-04-07T05:13:51;9.60;99.90
13591;DHT22;6866;50.778;7.206;2023-04-07T05:16:16;9.60;99.90
13591;DHT22;6866;50.778;7.206;2023-04-07T05:18:42;9.60;99.90
13591;DHT22;6866;50.778;7.206;2023-04-07T05:21:07;9.70;99.90
13591;DHT22;6866;50.778;7.206;2023-04-07T05:23:34;9.60;99.90
13591;DHT22;6866;50.778;7.206;2023-04-07T05:26:00;9.60;99.90
13591;DHT22;6866;50.778;7.206;2023-04-07T05:28:26;9.60;99.90
13591;DHT22;6866;50.778;7.206;2023-04-07T05:30:51;9.60;99.90
13591;DHT22;6866;50.778;7.206;2023-04-07T05:33:17;9.60;99.90
13591;DHT22;6866;50.778;7.206;2023-04-07T05:35:45;9.60;99.90
13591;DHT22;6866;50.778;7.206;2023-04-07T05:38:12;9.60;99.90
13591;DHT22;6866;50.778;7.206;2023-04-07T05:40:38;9.60;99.90
13591;DHT22;6866;50.778;7.206;2023-04-07T05:43:04;9.60;99.90
13591;DHT22;6866;50.778;7.206;2023-04-07T05:45:30;9.50;99.90
13591;DHT22;6866;50.778;7.206;2023-04-07T05:47:55;9.50;99.90
13591;DHT22;6866;50.778;7.206;2023-04-07T05:50:21;9.50;99.90
13591;DHT22;6866;50.778;7.206;2023-04-07T05:52:46;9.50;99.90
13591;DHT22;6866;50.778;7.206;2023-04-07T05:55:12;9.60;99.90
13591;DHT22;6866;50.778;7.206;2023-04-07T05:57:37;9.60;99.90
13591;DHT22;6866;50.778;7.206;2023-04-07T06:00:03;9.60;99.90
13591;DHT22;6866;50.778;7.206;2023-04-07T06:02:29;9.70;99.90
13591;DHT22;6866;50.778;7.206;2023-04-07T06:04:55;9.60;99.90
13591;DHT22;6866;50.778;7.206;2023-04-07T06:07:20;9.50;99.90
13591;DHT22;6866;50.778;7.206;2023-04-07T06:09:46;9.60;99.90
13591;DHT22;6866;50.778;7.206;2023-04-07T06:12:12;9.60;99.90
13591;DHT22;6866;50.778;7.206;2023-04-07T06:14:38;9.50;99.90
13591;DHT22;6866;50.778;7.206;2023-04-07T06:17:03;9.60;99.90
13591;DHT22;6866;50.778;7.206;2023-04-07T06:19:29;9.60;99.90
13591;DHT22;6866;50.778;7.206;2023-04-07T06:21:54;9.60;99.90
13591;DHT22;6866;50.778;7.206;2023-04-07T06:24:20;9.60;99.90
13591;DHT22;6866;50.778;7.206;2023-04-07T06:26:47;9.60;99.90
13591;DHT22;6866;50.778;7.206;2023-04-07T06:29:13;9.70;99.90
13591;DHT22;6866;50.778;7.206;2023-04-07T06:31:39;9.70;99.90
13591;DHT22;6866;50.778;7.206;2023-04-07T06:34:04;9.70;99.90
13591;DHT22;6866;50.778;7.206;2023-04-07T06:36:30;9.60;99.90
13591;DHT22;6866;50.778;7.206;2023-04-07T06:38:57;9.60;99.90
13591;DHT22;6866;50.778;7.206;2023-04-07T06:41:22;9.50;99.90
13591;DHT22;6866;50.778;7.206;2023-04-07T06:43:49;9.50;99.90
13591;DHT22;6866;50.778;7.206;2023-04-07T06:46:18;9.50;99.90
13591;DHT22;6866;50.778;7.206;2023-04-07T06:48:44;9.60;99.90
13591;DHT22;6866;50.778;7.206;2023-04-07T06:51:10;9.60;99.90
13591;DHT22;6866;50.778;7.206;2023-04-07T06:53:35;9.60;99.90
13591;DHT22;6866;50.778;7.206;2023-04-07T06:56:05;9.60;99.90
13591;DHT22;6866;50.778;7.206;2023-04-07T06:58:32;9.60;99.90
13591;DHT22;6866;50.778;7.206;2023-04-07T07:00:59;9.70;99.90
13591;DHT22;6866;50.778;7.206;2023-04-07T07:03:25;9.70;99.90
13591;DHT22;6866;50.778;7.206;2023-04-07T07:05:53;9.70;99.90
13591;DHT22;6866;50.778;7.206;2023-04-07T07:08:19;9.70;99.90
13591;DHT22;6866;50.778;7.206;2023-04-07T07:10:44;9.70;99.90
13591;DHT22;6866;50.778;7.206;2023-04-07T07:13:10;9.60;99.90
13591;DHT22;6866;50.778;7.206;2023-04-07T07:15:35;9.60;99.90
13591;DHT22;6866;50.778;7.206;2023-04-07T07:18:01;9.70;99.90
13591;DHT22;6866;50.778;7.206;2023-04-07T07:20:26;9.70;99.90
13591;DHT22;6866;50.778;7.206;2023-04-07T07:22:52;9.70;99.90
13591;DHT22;6866;50.778;7.206;2023-04-07T07:25:17;9.70;99.90
13591;DHT22;6866;50.778;7.206;2023-04-07T07:27:43;9.80;99.90
13591;DHT22;6866;50.778;7.206;2023-04-07T07:30:09;9.70;99.90
13591;DHT22;6866;50.778;7.206;2023-04-07T07:32:35;9.80;99.90
13591;DHT22;6866;50.778;7.206;2023-04-07T07:35:00;9.80;99.90
13591;DHT22;6866;50.778;7.206;2023-04-07T07:37:26;9.80;99.90
13591;DHT22;6866;50.778;7.206;2023-04-07T07:39:52;9.80;99.90
13591;DHT22;6866;50.778;7.206;2023-04-07T07:42:18;9.90;99.90
13591;DHT22;6866;50.778;7.206;2023-04-07T07:44:43;9.90;99.90
13591;DHT22;6866;50.778;7.206;2023-04-07T07:47:09;10.00;99.90
13591;DHT22;6866;50.778;7.206;2023-04-07T07:49:34;10.00;99.90
13591;DHT22;6866;50.778;7.206;2023-04-07T07:52:00;10.20;99.90
13591;DHT22;6866;50.778;7.206;2023-04-07T07:54:26;10.20;99.90
13591;DHT22;6866;50.778;7.206;2023-04-07T07:56:52;10.20;99.90
13591;DHT22;6866;50.778;7.206;2023-04-07T07:59:17;10.20;99.90
13591;DHT22;6866;50.778;7.206;2023-04-07T08:01:43;10.20;99.90
13591;DHT22;6866;50.778;7.206;2023-04-07T08:04:09;10.20;99.90
13591;DHT22;6866;50.778;7.206;2023-04-07T08:06:34;10.20;99.90
13591;DHT22;6866;50.778;7.206;2023-04-07T08:09:00;10.20;99.90
13591;DHT22;6866;50.778;7.206;2023-04-07T08:11:26;10.20;99.90
13591;DHT22;6866;50.778;7.206;2023-04-07T08:13:52;10.20;99.90
13591;DHT22;6866;50.778;7.206;2023-04-07T08:16:18;10.20;99.90
13591;DHT22;6866;50.778;7.206;2023-04-07T08:18:44;10.20;99.90
13591;DHT22;6866;50.778;7.206;2023-04-07T08:21:10;10.20;99.90
13591;DHT22;6866;50.778;7.206;2023-04-07T08:23:37;10.30;99.90
13591;DHT22;6866;50.778;7.206;2023-04-07T08:26:02;10.30;99.90
13591;DHT22;6866;50.778;7.206;2023-04-07T08:28:28;10.30;99.90
13591;DHT22;6866;50.778;7.206;2023-04-07T08:30:53;10.50;99.90
13591;DHT22;6866;50.778;7.206;2023-04-07T08:33:19;10.40;99.90
13591;DHT22;6866;50.778;7.206;2023-04-07T08:35:44;10.50;99.90
13591;DHT22;6866;50.778;7.206;2023-04-07T08:38:10;10.60;99.90
13591;DHT22;6866;50.778;7.206;2023-04-07T08:40:36;10.50;99.90
13591;DHT22;6866;50.778;7.206;2023-04-07T08:43:07;10.60;99.90
13591;DHT22;6866;50.778;7.206;2023-04-07T08:45:37;10.60;99.90
13591;DHT22;6866;50.778;7.206;2023-04-07T08:48:16;10.70;99.90
13591;DHT22;6866;50.778;7.206;2023-04-07T08:50:44;10.80;99.90
13591;DHT22;6866;50.778;7.206;2023-04-07T08:53:11;10.80;99.90
13591;DHT22;6866;50.778;7.206;2023-04-07T08:55:37;10.80;99.90
13591;DHT22;6866;50.778;7.206;2023-04-07T08:58:03;10.80;99.90
13591;DHT22;6866;50.778;7.206;2023-04-07T09:00:29;10.80;99.90
13591;DHT22;6866;50.778;7.206;2023-04-07T09:02:55;10.80;99.90
13591;DHT22;6866;50.778;7.206;2023-04-07T09:05:21;10.70;99.90
13591;DHT22;6866;50.778;7.206;2023-04-07T09:07:49;10.70;99.90
13591;DHT22;6866;50.778;7.206;2023-04-07T09:10:15;10.70;99.90
13591;DHT22;6866;50.778;7.206;2023-04-07T09:12:41;10.70;99.90
13591;DHT22;6866;50.778;7.206;2023-04-07T09:15:07;10.80;99.90
13591;DHT22;6866;50.778;7.206;2023-04-07T09:17:33;10.90;99.90
13591;DHT22;6866;50.778;7.206;2023-04-07T09:19:59;11.00;99.90
13591;DHT22;6866;50.778;7.206;2023-04-07T09:25:21;11.20;99.90
13591;DHT22;6866;50.778;7.206;2023-04-07T09:30:23;11.00;99.90
13591;DHT22;6866;50.778;7.206;2023-04-07T09:32:48;11.00;99.90
13591;DHT22;6866;50.778;7.206;2023-04-07T09:35:14;11.10;99.90
13591;DHT22;6866;50.778;7.206;2023-04-07T09:37:40;11.20;99.90
13591;DHT22;6866;50.778;7.206;2023-04-07T09:40:07;11.20;99.90
13591;DHT22;6866;50.778;7.206;2023-04-07T09:42:33;11.10;99.90
13591;DHT22;6866;50.778;7.206;2023-04-07T09:45:01;11.10;99.90
13591;DHT22;6866;50.778;7.206;2023-04-07T09:47:28;11.00;99.90
13591;DHT22;6866;50.778;7.206;2023-04-07T09:49:54;10.90;99.90
13591;DHT22;6866;50.778;7.206;2023-04-07T09:52:50;11.00;99.90
13591;DHT22;6866;50.778;7.206;2023-04-07T09:55:21;11.10;99.90
13591;DHT22;6866;50.778;7.206;2023-04-07T09:57:51;11.00;99.90
13591;DHT22;6866;50.778;7.206;2023-04-07T10:00:17;10.90;99.90
13591;DHT22;6866;50.778;7.206;2023-04-07T10:02:43;10.90;99.90
13591;DHT22;6866;50.778;7.206;2023-04-07T10:05:09;11.00;99.90
13591;DHT22;6866;50.778;7.206;2023-04-07T10:07:35;11.00;99.90
13591;DHT22;6866;50.778;7.206;2023-04-07T10:10:02;11.10;99.90
13591;DHT22;6866;50.778;7.206;2023-04-07T10:12:29;11.10;99.90
13591;DHT22;6866;50.778;7.206;2023-04-07T10:14:57;11.30;99.90
13591;DHT22;6866;50.778;7.206;2023-04-07T10:17:23;11.30;99.90
13591;DHT22;6866;50.778;7.206;2023-04-07T10:19:49;11.20;99.90
13591;DHT22;6866;50.778;7.206;2023-04-07T10:22:16;11.30;99.90
13591;DHT22;6866;50.778;7.206;2023-04-07T10:24:56;11.40;99.90
13591;DHT22;6866;50.778;7.206;2023-04-07T10:27:31;11.60;99.90
13591;DHT22;6866;50.778;7.206;2023-04-07T10:29:59;11.70;99.90
13591;DHT22;6866;50.778;7.206;2023-04-07T10:32:25;11.80;99.90
13591;DHT22;6866;50.778;7.206;2023-04-07T10:37:22;11.70;99.90
13591;DHT22;6866;50.778;7.206;2023-04-07T10:39:49;11.80;99.90
13591;DHT22;6866;50.778;7.206;2023-04-07T10:45:07;11.80;99.90
13591;DHT22;6866;50.778;7.206;2023-04-07T10:47:34;11.90;99.90
13591;DHT22;6866;50.778;7.206;2023-04-07T10:50:18;11.90;99.90
13591;DHT22;6866;50.778;7.206;2023-04-07T10:52:45;12.00;99.90
13591;DHT22;6866;50.778;7.206;2023-04-07T10:55:34;12.00;99.90
13591;DHT22;6866;50.778;7.206;2023-04-07T10:58:23;11.90;99.90
13591;DHT22;6866;50.778;7.206;2023-04-07T11:03:52;11.90;99.90
13591;DHT22;6866;50.778;7.206;2023-04-07T11:06:18;12.00;99.90
13591;DHT22;6866;50.778;7.206;2023-04-07T11:08:46;11.90;99.90
13591;DHT22;6866;50.778;7.206;2023-04-07T11:11:14;11.80;99.90
13591;DHT22;6866;50.778;7.206;2023-04-07T11:13:46;11.70;99.90
13591;DHT22;6866;50.778;7.206;2023-04-07T11:16:14;11.60;99.90
13591;DHT22;6866;50.778;7.206;2023-04-07T11:18:40;11.60;99.90
13591;DHT22;6866;50.778;7.206;2023-04-07T11:21:06;11.60;99.90
13591;DHT22;6866;50.778;7.206;2023-04-07T11:23:42;11.60;99.90
13591;DHT22;6866;50.778;7.206;2023-04-07T11:26:10;11.60;99.90
13591;DHT22;6866;50.778;7.206;2023-04-07T11:28:49;11.50;99.90
13591;DHT22;6866;50.778;7.206;2023-04-07T11:31:27;11.50;99.90
13591;DHT22;6866;50.778;7.206;2023-04-07T11:33:54;11.60;99.90
13591;DHT22;6866;50.778;7.206;2023-04-07T11:36:28;11.60;99.90
13591;DHT22;6866;50.778;7.206;2023-04-07T11:38:54;11.60;99.90
13591;DHT22;6866;50.778;7.206;2023-04-07T11:41:22;11.60;99.90
13591;DHT22;6866;50.778;7.206;2023-04-07T11:43:48;11.50;99.90
13591;DHT22;6866;50.778;7.206;2023-04-07T11:46:16;11.40;99.90
13591;DHT22;6866;50.778;7.206;2023-04-07T11:48:43;11.20;99.90
13591;DHT22;6866;50.778;7.206;2023-04-07T11:51:17;11.40;99.90
13591;DHT22;6866;50.778;7.206;2023-04-07T11:53:44;11.50;99.90
13591;DHT22;6866;50.778;7.206;2023-04-07T11:56:13;11.60;99.90
13591;DHT22;6866;50.778;7.206;2023-04-07T11:58:50;11.50;99.90
13591;DHT22;6866;50.778;7.206;2023-04-07T12:01:17;11.50;99.90
13591;DHT22;6866;50.778;7.206;2023-04-07T12:04:03;11.40;99.90
13591;DHT22;6866;50.778;7.206;2023-04-07T12:06:33;11.50;99.90
13591;DHT22;6866;50.778;7.206;2023-04-07T12:09:00;11.50;99.90
13591;DHT22;6866;50.778;7.206;2023-04-07T12:11:26;11.50;99.90
13591;DHT22;6866;50.778;7.206;2023-04-07T12:13:52;11.60;99.90
13591;DHT22;6866;50.778;7.206;2023-04-07T12:16:19;11.50;99.90
13591;DHT22;6866;50.778;7.206;2023-04-07T12:18:44;11.50;99.90
13591;DHT22;6866;50.778;7.206;2023-04-07T12:21:10;11.60;99.90
13591;DHT22;6866;50.778;7.206;2023-04-07T12:23:35;11.50;99.90
13591;DHT22;6866;50.778;7.206;2023-04-07T12:26:01;11.40;99.90
13591;DHT22;6866;50.778;7.206;2023-04-07T12:28:27;11.40;99.90
13591;DHT22;6866;50.778;7.206;2023-04-07T12:30:53;11.40;99.90
13591;DHT22;6866;50.778;7.206;2023-04-07T12:33:19;11.30;99.90
13591;DHT22;6866;50.778;7.206;2023-04-07T12:35:44;11.30;99.90
13591;DHT22;6866;50.778;7.206;2023-04-07T12:38:10;11.40;99.90
13591;DHT22;6866;50.778;7.206;2023-04-07T12:40:36;11.40;99.90
13591;DHT22;6866;50.778;7.206;2023-04-07T12:43:03;11.40;99.90
13591;DHT22;6866;50.778;7.206;2023-04-07T12:45:28;11.60;99.90
13591;DHT22;6866;50.778;7.206;2023-04-07T12:47:55;11.50;99.90
13591;DHT22;6866;50.778;7.206;2023-04-07T12:50:22;11.50;99.90
13591;DHT22;6866;50.778;7.206;2023-04-07T12:52:49;11.50;99.90
13591;DHT22;6866;50.778;7.206;2023-04-07T12:55:15;11.50;99.90
13591;DHT22;6866;50.778;7.206;2023-04-07T12:57:41;11.50;99.90
13591;DHT22;6866;50.778;7.206;2023-04-07T13:00:07;11.50;99.90
13591;DHT22;6866;50.778;7.206;2023-04-07T13:02:33;11.50;99.90
13591;DHT22;6866;50.778;7.206;2023-04-07T13:05:01;11.60;99.90
13591;DHT22;6866;50.778;7.206;2023-04-07T13:07:26;11.60;99.90
13591;DHT22;6866;50.778;7.206;2023-04-07T13:09:52;11.60;99.90
13591;DHT22;6866;50.778;7.206;2023-04-07T13:12:19;11.70;99.90
13591;DHT22;6866;50.778;7.206;2023-04-07T13:14:44;11.60;99.90
13591;DHT22;6866;50.778;7.206;2023-04-07T13:17:10;11.60;99.90
13591;DHT22;6866;50.778;7.206;2023-04-07T13:19:36;11.60;99.90
13591;DHT22;6866;50.778;7.206;2023-04-07T13:22:02;11.50;99.90
13591;DHT22;6866;50.778;7.206;2023-04-07T13:24:27;11.60;99.90
13591;DHT22;6866;50.778;7.206;2023-04-07T13:26:53;11.50;99.90
13591;DHT22;6866;50.778;7.206;2023-04-07T13:29:19;11.60;99.90
13591;DHT22;6866;50.778;7.206;2023-04-07T13:31:45;11.80;99.90
13591;DHT22;6866;50.778;7.206;2023-04-07T13:34:11;11.80;99.90
13591;DHT22;6866;50.778;7.206;2023-04-07T13:36:37;11.80;99.90
13591;DHT22;6866;50.778;7.206;2023-04-07T13:39:03;11.90;99.90
13591;DHT22;6866;50.778;7.206;2023-04-07T13:41:29;12.00;99.90
13591;DHT22;6866;50.778;7.206;2023-04-07T13:43:54;11.90;99.90
13591;DHT22;6866;50.778;7.206;2023-04-07T13:46:20;12.00;99.90
13591;DHT22;6866;50.778;7.206;2023-04-07T13:48:46;11.90;99.90
13591;DHT22;6866;50.778;7.206;2023-04-07T13:51:12;11.90;99.90
13591;DHT22;6866;50.778;7.206;2023-04-07T13:53:38;11.80;99.90
13591;DHT22;6866;50.778;7.206;2023-04-07T13:56:04;11.80;99.90
13591;DHT22;6866;50.778;7.206;2023-04-07T13:58:35;11.70;99.90
13591;DHT22;6866;50.778;7.206;2023-04-07T14:01:02;11.70;99.90
13591;DHT22;6866;50.778;7.206;2023-04-07T14:03:28;11.70;99.90
13591;DHT22;6866;50.778;7.206;2023-04-07T14:05:53;11.80;99.90
13591;DHT22;6866;50.778;7.206;2023-04-07T14:08:20;11.70;99.90
13591;DHT22;6866;50.778;7.206;2023-04-07T14:10:48;11.60;99.90
13591;DHT22;6866;50.778;7.206;2023-04-07T14:13:13;11.70;99.90
13591;DHT22;6866;50.778;7.206;2023-04-07T14:15:39;11.90;99.90
13591;DHT22;6866;50.778;7.206;2023-04-07T14:18:04;11.90;99.90
13591;DHT22;6866;50.778;7.206;2023-04-07T14:20:30;12.00;99.90
13591;DHT22;6866;50.778;7.206;2023-04-07T14:22:56;12.10;99.90
13591;DHT22;6866;50.778;7.206;2023-04-07T14:25:21;12.00;99.90
13591;DHT22;6866;50.778;7.206;2023-04-07T14:27:47;12.10;99.90
13591;DHT22;6866;50.778;7.206;2023-04-07T14:30:12;12.20;99.90
13591;DHT22;6866;50.778;7.206;2023-04-07T14:32:38;12.40;99.90
13591;DHT22;6866;50.778;7.206;2023-04-07T14:35:04;12.40;99.90
13591;DHT22;6866;50.778;7.206;2023-04-07T14:37:29;12.40;99.90
13591;DHT22;6866;50.778;7.206;2023-04-07T14:39:55;12.30;99.90
13591;DHT22;6866;50.778;7.206;2023-04-07T14:42:22;12.20;99.90
13591;DHT22;6866;50.778;7.206;2023-04-07T14:44:48;12.10;99.90
13591;DHT22;6866;50.778;7.206;2023-04-07T14:47:14;12.10;99.90
13591;DHT22;6866;50.778;7.206;2023-04-07T14:49:39;12.10;99.90
13591;DHT22;6866;50.778;7.206;2023-04-07T14:52:05;12.10;99.90
13591;DHT22;6866;50.778;7.206;2023-04-07T14:54:30;12.10;99.90
13591;DHT22;6866;50.778;7.206;2023-04-07T14:56:56;12.10;99.90
13591;DHT22;6866;50.778;7.206;2023-04-07T14:59:21;12.10;99.90
13591;DHT22;6866;50.778;7.206;2023-04-07T15:01:47;12.10;99.90
13591;DHT22;6866;50.778;7.206;2023-04-07T15:04:12;12.10;99.90
13591;DHT22;6866;50.778;7.206;2023-04-07T15:06:41;12.00;99.90
13591;DHT22;6866;50.778;7.206;2023-04-07T15:09:07;12.00;99.90
13591;DHT22;6866;50.778;7.206;2023-04-07T15:11:33;12.00;99.90
13591;DHT22;6866;50.778;7.206;2023-04-07T15:13:59;12.10;99.90
13591;DHT22;6866;50.778;7.206;2023-04-07T15:16:25;12.10;99.90
13591;DHT22;6866;50.778;7.206;2023-04-07T15:18:51;12.20;99.90
13591;DHT22;6866;50.778;7.206;2023-04-07T15:21:17;12.10;99.90
13591;DHT22;6866;50.778;7.206;2023-04-07T15:23:44;12.20;99.90
13591;DHT22;6866;50.778;7.206;2023-04-07T15:26:10;12.20;99.90
13591;DHT22;6866;50.778;7.206;2023-04-07T15:28:36;12.10;99.90
13591;DHT22;6866;50.778;7.206;2023-04-07T15:31:02;12.10;99.90
13591;DHT22;6866;50.778;7.206;2023-04-07T15:33:28;12.10;99.90
13591;DHT22;6866;50.778;7.206;2023-04-07T15:35:53;12.10;99.90
13591;DHT22;6866;50.778;7.206;2023-04-07T15:38:20;12.10;99.90
13591;DHT22;6866;50.778;7.206;2023-04-07T15:40:45;12.10;99.90
13591;DHT22;6866;50.778;7.206;2023-04-07T15:43:11;12.10;99.90
13591;DHT22;6866;50.778;7.206;2023-04-07T15:45:40;12.00;99.90
13591;DHT22;6866;50.778;7.206;2023-04-07T15:48:07;11.90;99.90
13591;DHT22;6866;50.778;7.206;2023-04-07T15:50:33;11.90;99.90
13591;DHT22;6866;50.778;7.206;2023-04-07T15:53:00;11.90;99.90
13591;DHT22;6866;50.778;7.206;2023-04-07T15:55:26;11.90;99.90
13591;DHT22;6866;50.778;7.206;2023-04-07T15:57:51;11.80;99.90
13591;DHT22;6866;50.778;7.206;2023-04-07T16:00:17;11.80;99.90
13591;DHT22;6866;50.778;7.206;2023-04-07T16:02:43;11.70;99.90
13591;DHT22;6866;50.778;7.206;2023-04-07T16:05:09;11.80;99.90
13591;DHT22;6866;50.778;7.206;2023-04-07T16:07:35;11.80;99.90
13591;DHT22;6866;50.778;7.206;2023-04-07T16:10:00;11.80;99.90
13591;DHT22;6866;50.778;7.206;2023-04-07T16:12:26;11.80;99.90